createdAt,value
2019-03-22T00:02:26.487Z,68.87
2019-03-22T00:04:54.737Z,68.92
2019-03-22T00:07:22.978Z,68.89
2019-03-22T00:09:51.217Z,69.18
2019-03-22T00:12:19.677Z,69.15
2019-03-22T00:14:47.919Z,69.43
2019-03-22T00:17:16.155Z,69.57
2019-03-22T00:19:44.405Z,69.74
2019-03-22T00:22:12.954Z,71.12
2019-03-22T00:24:41.197Z,70.63
2019-03-22T00:27:16.327Z,70.33
2019-03-22T00:29:39.629Z,70.35
2019-03-22T00:32:07.862Z,70.49
2019-03-22T00:34:36.113Z,70.60
2019-03-22T00:37:04.342Z,70.55
2019-03-22T00:39:32.582Z,72.36
2019-03-22T00:42:00.821Z,71.37
2019-03-22T00:44:29.456Z,71.74
2019-03-22T00:46:57.639Z,70.97
2019-03-22T00:49:26.159Z,70.80
2019-03-22T00:51:54.404Z,71.21
2019-03-22T00:54:22.635Z,72.78
2019-03-22T00:56:51.191Z,72.02
2019-03-22T00:59:19.427Z,73.30
2019-03-22T01:01:47.672Z,72.09
2019-03-22T01:04:15.912Z,72.60
2019-03-22T01:06:44.151Z,71.95
2019-03-22T01:09:12.390Z,73.98
2019-03-22T01:11:40.954Z,71.73
2019-03-22T01:14:09.189Z,72.25
2019-03-22T01:16:37.654Z,71.69
2019-03-22T01:19:05.892Z,72.47
2019-03-22T01:21:34.135Z,71.98
2019-03-22T01:24:02.653Z,72.35
2019-03-22T01:26:30.899Z,72.59
2019-03-22T01:28:59.130Z,73.70
2019-03-22T01:31:27.420Z,72.91
2019-03-22T01:33:55.841Z,72.57
2019-03-22T01:36:24.079Z,73.29
2019-03-22T01:38:52.310Z,72.82
2019-03-22T01:41:20.788Z,73.27
2019-03-22T01:43:49.016Z,74.17
2019-03-22T01:46:17.486Z,75.34
2019-03-22T01:48:45.723Z,76.39
2019-03-22T01:51:14.195Z,74.33
2019-03-22T01:53:42.435Z,74.11
2019-03-22T01:56:10.678Z,74.92
2019-03-22T01:58:39.149Z,73.28
2019-03-22T02:01:07.379Z,73.61
2019-03-22T02:03:35.612Z,73.91
2019-03-22T02:06:03.856Z,74.36
2019-03-22T02:08:32.319Z,73.79
2019-03-22T02:11:00.563Z,74.52
2019-03-22T02:13:29.026Z,74.15
2019-03-22T02:15:57.441Z,76.46
2019-03-22T02:18:25.679Z,76.13
2019-03-22T02:20:54.154Z,74.25
2019-03-22T02:23:22.389Z,74.09
2019-03-22T02:25:50.639Z,75.68
2019-03-22T02:28:19.098Z,76.15
2019-03-22T02:30:47.348Z,74.95
2019-03-22T02:33:15.591Z,75.30
2019-03-22T02:35:44.010Z,77.20
2019-03-22T02:38:12.244Z,76.89
2019-03-22T02:40:40.493Z,75.14
2019-03-22T02:43:08.837Z,76.21
2019-03-22T02:45:37.060Z,75.61
2019-03-22T02:48:05.275Z,75.43
2019-03-22T02:50:33.746Z,75.52
2019-03-22T02:53:01.988Z,75.44
2019-03-22T02:55:30.232Z,75.30
2019-03-22T02:57:58.468Z,75.44
2019-03-22T03:00:26.935Z,75.56
2019-03-22T03:02:55.412Z,77.23
2019-03-22T03:05:23.886Z,75.72
2019-03-22T03:07:52.118Z,75.67
2019-03-22T03:10:20.355Z,75.82
2019-03-22T03:12:48.595Z,76.14
2019-03-22T03:15:18.023Z,76.50
2019-03-22T03:17:46.547Z,77.47
2019-03-22T03:20:18.382Z,76.57
2019-03-22T03:22:46.925Z,76.60
2019-03-22T03:25:16.404Z,77.58
2019-03-22T03:27:44.808Z,77.53
2019-03-22T03:30:18.252Z,76.85
2019-03-22T03:32:46.506Z,76.70
2019-03-22T03:35:14.825Z,78.30
2019-03-22T03:37:43.285Z,77.18
2019-03-22T03:40:13.150Z,76.84
2019-03-22T03:42:41.402Z,76.84
2019-03-22T03:45:32.372Z,77.00
2019-03-22T03:48:02.013Z,77.05
2019-03-22T03:50:30.343Z,77.36
2019-03-22T03:52:58.630Z,77.40
2019-03-22T03:55:27.926Z,77.40
2019-03-22T03:57:56.167Z,78.64
2019-03-22T04:00:24.397Z,77.55
2019-03-22T04:02:52.941Z,77.57
2019-03-22T04:05:21.656Z,77.65
2019-03-22T04:07:49.898Z,77.67
2019-03-22T04:10:18.138Z,77.77
2019-03-22T04:12:46.668Z,77.82
2019-03-22T04:15:14.979Z,79.34
2019-03-22T04:17:43.453Z,79.34
2019-03-22T04:20:11.690Z,80.52
2019-03-22T04:22:39.945Z,79.68
2019-03-22T04:25:08.430Z,79.42
2019-03-22T04:27:36.665Z,78.99
2019-03-22T04:30:08.476Z,78.75
2019-03-22T04:32:36.718Z,78.64
2019-03-22T04:35:08.761Z,79.42
2019-03-22T04:37:36.998Z,78.71
2019-03-22T04:40:11.149Z,79.61
2019-03-22T04:42:39.397Z,80.05
2019-03-22T04:45:07.707Z,80.14
2019-03-22T04:47:36.566Z,79.77
2019-03-22T04:50:05.838Z,79.67
2019-03-22T04:52:34.247Z,79.63
2019-03-22T04:55:02.653Z,81.47
2019-03-22T04:57:31.163Z,80.08
2019-03-22T04:59:59.404Z,79.49
2019-03-22T05:02:28.414Z,79.42
2019-03-22T05:04:56.826Z,81.13
2019-03-22T05:07:25.068Z,79.78
2019-03-22T05:09:53.479Z,80.43
2019-03-22T05:12:22.288Z,80.30
2019-03-22T05:14:50.796Z,80.07
2019-03-22T05:17:19.206Z,80.60
2019-03-22T05:19:50.550Z,80.72
2019-03-22T05:22:19.259Z,81.25
2019-03-22T05:24:48.268Z,80.57
2019-03-22T05:27:16.844Z,80.59
2019-03-22T05:29:46.650Z,80.98
2019-03-22T05:32:16.057Z,80.52
2019-03-22T05:34:44.294Z,80.61
2019-03-22T05:37:12.537Z,81.03
2019-03-22T05:39:40.776Z,82.49
2019-03-22T05:42:09.255Z,81.21
2019-03-22T05:44:37.495Z,80.98
2019-03-22T05:47:05.799Z,82.10
2019-03-22T05:49:34.050Z,81.04
2019-03-22T05:52:02.294Z,80.73
2019-03-22T05:54:30.763Z,80.72
2019-03-22T05:56:59.002Z,80.71
2019-03-22T05:59:27.267Z,80.61
2019-03-22T06:01:55.515Z,80.61
2019-03-22T06:04:23.749Z,80.87
2019-03-22T06:06:51.995Z,81.41
2019-03-22T06:09:20.236Z,80.71
2019-03-22T06:11:48.726Z,80.86
2019-03-22T06:14:17.244Z,82.44
2019-03-22T06:16:45.474Z,82.79
2019-03-22T06:19:13.716Z,80.82
2019-03-22T06:21:42.191Z,80.43
2019-03-22T06:24:10.430Z,80.58
2019-03-22T06:26:38.917Z,80.67
2019-03-22T06:29:07.382Z,80.57
2019-03-22T06:31:35.622Z,80.92
2019-03-22T06:34:04.029Z,81.80
2019-03-22T06:36:32.271Z,82.06
2019-03-22T06:39:00.818Z,81.03
2019-03-22T06:41:29.066Z,81.11
2019-03-22T06:43:57.306Z,81.20
2019-03-22T06:46:25.557Z,80.14
2019-03-22T06:48:53.794Z,80.42
2019-03-22T06:51:22.047Z,80.71
2019-03-22T06:53:50.284Z,81.32
2019-03-22T06:56:18.528Z,80.56
2019-03-22T06:58:47.040Z,80.30
2019-03-22T07:01:15.312Z,80.71
2019-03-22T07:03:43.520Z,80.20
2019-03-22T07:06:11.769Z,80.70
2019-03-22T07:08:40.001Z,80.41
2019-03-22T07:11:08.249Z,79.44
2019-03-22T07:13:36.807Z,79.29
2019-03-22T07:16:05.395Z,79.63
2019-03-22T07:18:33.623Z,80.32
2019-03-22T07:21:01.873Z,79.53
2019-03-22T07:23:30.102Z,79.46
2019-03-22T07:25:58.354Z,79.33
2019-03-22T07:28:26.901Z,78.57
2019-03-22T07:30:55.146Z,78.15
2019-03-22T07:33:23.459Z,77.78
2019-03-22T07:35:51.637Z,77.48
2019-03-22T07:38:20.193Z,77.14
2019-03-22T07:40:48.465Z,76.41
2019-03-22T07:43:16.711Z,75.01
2019-03-22T07:45:44.951Z,74.26
2019-03-22T07:48:13.418Z,72.59
2019-03-22T07:50:41.682Z,73.10
2019-03-22T07:53:09.918Z,72.71
2019-03-22T07:55:38.438Z,73.21
2019-03-22T07:58:06.689Z,70.97
2019-03-22T08:00:34.934Z,72.11
2019-03-22T08:03:03.183Z,72.42
2019-03-22T08:05:31.428Z,71.45
2019-03-22T08:07:59.677Z,69.20
2019-03-22T08:10:27.943Z,69.22
2019-03-22T08:12:56.172Z,68.82
2019-03-22T08:15:29.839Z,66.25
2019-03-22T08:17:58.144Z,67.12
2019-03-22T08:20:26.648Z,67.12
2019-03-22T08:22:54.887Z,67.70
2019-03-22T08:25:23.361Z,66.84
2019-03-22T08:27:51.612Z,66.41
2019-03-22T08:30:20.181Z,66.02
2019-03-22T08:32:50.477Z,65.99
2019-03-22T08:35:18.384Z,63.48
2019-03-22T08:37:52.488Z,65.06
2019-03-22T08:40:16.982Z,64.70
2019-03-22T08:42:45.274Z,63.31
2019-03-22T08:45:13.818Z,62.84
2019-03-22T08:47:42.089Z,62.15
2019-03-22T08:50:10.768Z,61.93
2019-03-22T08:52:39.028Z,60.20
2019-03-22T08:55:07.568Z,60.60
2019-03-22T08:57:35.812Z,58.68
2019-03-22T09:00:07.080Z,58.58
2019-03-22T09:02:35.329Z,59.13
2019-03-22T09:05:04.609Z,57.99
2019-03-22T09:07:32.858Z,58.79
2019-03-22T09:10:01.124Z,58.64
2019-03-22T09:12:29.359Z,58.13
2019-03-22T09:14:57.623Z,57.26
2019-03-22T09:17:25.890Z,57.76
2019-03-22T09:19:54.412Z,58.00
2019-03-22T09:22:22.670Z,57.44
2019-03-22T09:24:51.173Z,57.80
2019-03-22T09:27:19.669Z,57.71
2019-03-22T09:29:47.901Z,55.26
2019-03-22T09:32:16.152Z,55.42
2019-03-22T09:34:44.412Z,55.58
2019-03-22T09:37:12.667Z,56.00
2019-03-22T09:39:41.151Z,56.17
2019-03-22T09:42:09.666Z,55.31
2019-03-22T09:44:43.126Z,53.39
2019-03-22T09:47:08.346Z,54.35
2019-03-22T09:49:36.575Z,52.47
2019-03-22T09:52:05.133Z,48.59
2019-03-22T09:54:33.372Z,46.44
2019-03-22T09:57:01.969Z,49.18
2019-03-22T09:59:30.417Z,49.82
2019-03-22T10:01:58.670Z,47.02
2019-03-22T10:04:28.225Z,43.46
2019-03-22T10:06:56.468Z,45.98
2019-03-22T10:09:24.814Z,44.81
2019-03-22T10:11:53.267Z,46.39
2019-03-22T10:14:21.617Z,47.25
2019-03-22T10:16:49.824Z,44.74
2019-03-22T10:19:18.317Z,44.56
2019-03-22T10:21:46.564Z,45.60
2019-03-22T10:24:14.836Z,45.60
2019-03-22T10:26:43.314Z,43.73
2019-03-22T10:29:11.542Z,44.68
2019-03-22T10:31:39.757Z,43.25
2019-03-22T10:34:08.045Z,44.38
2019-03-22T10:36:36.281Z,42.81
2019-03-22T10:39:07.432Z,43.40
2019-03-22T10:41:35.745Z,43.05
2019-03-22T10:44:04.001Z,43.17
2019-03-22T10:46:32.505Z,42.88
2019-03-22T10:49:00.792Z,43.32
2019-03-22T10:51:29.043Z,43.55
2019-03-22T10:53:57.587Z,41.52
2019-03-22T10:56:26.142Z,44.28
2019-03-22T10:58:54.393Z,44.42
2019-03-22T11:01:22.638Z,42.77
2019-03-22T11:03:51.401Z,44.40
2019-03-22T11:06:26.016Z,42.84
2019-03-22T11:08:49.965Z,43.67
2019-03-22T11:11:18.398Z,42.58
2019-03-22T11:13:46.645Z,41.28
2019-03-22T11:16:14.899Z,42.01
2019-03-22T11:18:43.145Z,42.09
2019-03-22T11:21:11.392Z,40.54
2019-03-22T11:23:39.633Z,40.66
2019-03-22T11:26:08.103Z,41.41
2019-03-22T11:28:36.360Z,42.28
2019-03-22T11:31:05.245Z,41.52
2019-03-22T11:33:33.650Z,41.98
2019-03-22T11:36:01.854Z,42.35
2019-03-22T11:38:30.441Z,40.74
2019-03-22T11:40:58.683Z,40.47
2019-03-22T11:43:27.015Z,40.61
2019-03-22T11:45:55.580Z,39.77
2019-03-22T11:48:23.827Z,39.92
2019-03-22T11:50:52.072Z,39.07
2019-03-22T11:53:21.222Z,39.25
2019-03-22T11:55:49.709Z,38.23
2019-03-22T11:58:17.967Z,38.55
2019-03-22T12:00:46.567Z,38.83
2019-03-22T12:03:15.154Z,38.51
2019-03-22T12:05:43.393Z,38.64
2019-03-22T12:08:11.653Z,37.06
2019-03-22T12:10:39.893Z,36.23
2019-03-22T12:13:08.140Z,37.10
2019-03-22T12:15:36.652Z,38.25
2019-03-22T12:18:04.889Z,37.48
2019-03-22T12:20:33.140Z,38.56
2019-03-22T12:23:01.388Z,37.97
2019-03-22T12:25:29.621Z,38.12
2019-03-22T12:27:57.863Z,38.33
2019-03-22T12:30:26.121Z,38.86
2019-03-22T12:32:54.361Z,38.42
2019-03-22T12:35:22.979Z,39.17
2019-03-22T12:37:51.546Z,39.25
2019-03-22T12:40:23.308Z,38.44
2019-03-22T12:42:51.613Z,37.54
2019-03-22T12:45:26.124Z,37.89
2019-03-22T12:47:54.434Z,32.71
2019-03-22T12:50:23.120Z,35.09
2019-03-22T12:52:51.360Z,35.22
2019-03-22T12:55:20.273Z,35.29
2019-03-22T12:57:48.909Z,36.51
2019-03-22T13:00:26.563Z,36.62
2019-03-22T13:02:55.497Z,35.45
2019-03-22T13:05:24.151Z,36.83
2019-03-22T13:07:52.961Z,36.86
2019-03-22T13:10:26.337Z,37.82
2019-03-22T13:12:54.864Z,37.50
2019-03-22T13:15:23.115Z,37.24
2019-03-22T13:17:51.353Z,37.17
2019-03-22T13:20:19.593Z,37.13
2019-03-22T13:22:48.089Z,36.05
2019-03-22T13:25:17.075Z,36.49
2019-03-22T13:27:45.316Z,38.09
2019-03-22T13:30:32.375Z,35.92
2019-03-22T13:33:00.628Z,37.32
2019-03-22T13:35:28.867Z,36.52
2019-03-22T13:37:57.113Z,37.36
2019-03-22T13:40:25.578Z,36.52
2019-03-22T13:42:54.376Z,36.48
2019-03-22T13:45:22.863Z,36.81
2019-03-22T13:47:51.112Z,37.35
2019-03-22T13:50:19.354Z,38.02
2019-03-22T13:52:47.609Z,37.63
2019-03-22T13:55:15.859Z,37.96
2019-03-22T13:57:44.351Z,36.77
2019-03-22T14:00:16.887Z,35.60
2019-03-22T14:02:45.411Z,36.46
2019-03-22T14:05:14.043Z,37.50
2019-03-22T14:07:42.576Z,36.15
2019-03-22T14:10:19.682Z,35.73
2019-03-22T14:12:47.927Z,36.13
2019-03-22T14:15:16.425Z,35.99
2019-03-22T14:17:44.680Z,35.66
2019-03-22T14:20:13.485Z,35.41
2019-03-22T14:22:41.734Z,35.19
2019-03-22T14:25:10.042Z,35.91
2019-03-22T14:27:38.314Z,36.01
2019-03-22T14:30:07.706Z,34.83
2019-03-22T14:32:35.952Z,34.67
2019-03-22T14:35:06.699Z,35.11
2019-03-22T14:37:34.937Z,35.21
2019-03-22T14:40:03.859Z,34.47
2019-03-22T14:42:32.332Z,34.16
2019-03-22T14:45:00.589Z,34.16
2019-03-22T14:47:28.836Z,34.11
2019-03-22T14:49:57.079Z,34.06
2019-03-22T14:52:25.599Z,34.15
2019-03-22T14:54:54.190Z,32.63
2019-03-22T14:57:22.423Z,32.83
2019-03-22T14:59:58.596Z,32.19
2019-03-22T15:02:20.858Z,33.33
2019-03-22T15:04:49.100Z,32.62
2019-03-22T15:07:20.074Z,32.18
2019-03-22T15:09:47.748Z,31.87
2019-03-22T15:12:15.994Z,32.38
2019-03-22T15:14:51.820Z,31.51
2019-03-22T15:17:24.418Z,32.14
2019-03-22T15:20:03.521Z,31.30
2019-03-22T15:22:49.670Z,31.61
2019-03-22T15:25:22.733Z,31.91
2019-03-22T15:28:08.502Z,30.88
2019-03-22T15:30:56.498Z,31.79
2019-03-22T15:33:41.531Z,30.50
2019-03-22T15:36:23.530Z,31.12
2019-03-22T15:39:02.454Z,30.88
2019-03-22T15:41:30.818Z,31.68
2019-03-22T15:43:59.363Z,30.15
2019-03-22T15:46:27.601Z,31.85
2019-03-22T15:48:56.064Z,31.08
2019-03-22T15:51:24.310Z,30.39
2019-03-22T15:53:52.549Z,31.33
2019-03-22T15:56:21.017Z,31.28
2019-03-22T15:58:49.291Z,29.99
2019-03-22T16:01:17.537Z,30.64
2019-03-22T16:03:46.083Z,30.69
2019-03-22T16:06:14.560Z,30.06
2019-03-22T16:08:43.032Z,30.52
2019-03-22T16:11:11.532Z,30.65
2019-03-22T16:13:40.000Z,31.01
2019-03-22T16:16:08.242Z,29.67
2019-03-22T16:18:36.488Z,30.58
2019-03-22T16:21:04.734Z,30.93
2019-03-22T16:23:33.227Z,30.12
2019-03-22T16:26:01.464Z,30.43
2019-03-22T16:28:29.991Z,30.67
2019-03-22T16:30:58.234Z,31.54
2019-03-22T16:33:26.721Z,31.36
2019-03-22T16:35:55.226Z,32.13
2019-03-22T16:38:23.473Z,33.27
2019-03-22T16:40:51.995Z,33.46
2019-03-22T16:43:20.240Z,33.22
2019-03-22T16:45:48.549Z,34.28
2019-03-22T16:48:16.810Z,34.26
2019-03-22T16:50:45.063Z,35.01
2019-03-22T16:53:13.617Z,35.19
2019-03-22T16:55:42.092Z,35.65
2019-03-22T16:58:10.647Z,36.04
2019-03-22T17:00:38.963Z,36.25
2019-03-22T17:03:07.208Z,36.41
2019-03-22T17:05:35.775Z,36.98
2019-03-22T17:08:04.025Z,37.01
2019-03-22T17:10:32.262Z,37.25
2019-03-22T17:13:00.512Z,37.33
2019-03-22T17:15:28.983Z,37.51
2019-03-22T17:17:57.233Z,37.68
2019-03-22T17:20:25.474Z,38.02
2019-03-22T17:22:53.949Z,38.12
2019-03-22T17:25:22.193Z,38.20
2019-03-22T17:27:50.441Z,38.60
2019-03-22T17:30:19.222Z,38.80
2019-03-22T17:32:47.456Z,39.17
2019-03-22T17:35:15.711Z,39.54
2019-03-22T17:37:44.185Z,39.88
2019-03-22T17:40:12.503Z,39.83
2019-03-22T17:42:40.976Z,40.72
2019-03-22T17:45:11.565Z,41.24
2019-03-22T17:47:39.809Z,42.33
2019-03-22T17:50:10.297Z,42.20
2019-03-22T17:52:38.773Z,43.37
2019-03-22T17:55:07.027Z,44.26
2019-03-22T17:57:35.568Z,44.51
2019-03-22T18:00:06.197Z,45.38
2019-03-22T18:02:34.664Z,45.08
2019-03-22T18:05:03.417Z,45.64
2019-03-22T18:07:31.654Z,46.12
2019-03-22T18:09:59.942Z,45.82
2019-03-22T18:12:28.180Z,47.14
2019-03-22T18:14:56.894Z,46.54
2019-03-22T18:17:25.425Z,46.89
2019-03-22T18:19:53.669Z,47.22
2019-03-22T18:22:21.913Z,47.34
2019-03-22T18:24:50.506Z,48.27
2019-03-22T18:27:18.991Z,50.17
2019-03-22T18:29:47.238Z,48.92
2019-03-22T18:32:15.476Z,48.54
2019-03-22T18:34:43.718Z,50.70
2019-03-22T18:37:11.953Z,48.90
2019-03-22T18:39:40.208Z,50.15
2019-03-22T18:42:08.424Z,50.70
2019-03-22T18:44:36.664Z,50.53
2019-03-22T18:47:04.902Z,52.50
2019-03-22T18:49:33.150Z,52.60
2019-03-22T18:52:01.407Z,52.17
2019-03-22T18:54:29.647Z,52.29
2019-03-22T18:56:57.885Z,50.95
2019-03-22T18:59:26.366Z,51.36
2019-03-22T19:01:54.605Z,52.83
2019-03-22T19:04:22.850Z,52.79
2019-03-22T19:06:51.188Z,53.19
2019-03-22T19:09:19.440Z,53.91
2019-03-22T19:11:47.977Z,55.04
2019-03-22T19:14:16.560Z,56.05
2019-03-22T19:16:44.803Z,56.08
2019-03-22T19:19:13.277Z,53.54
2019-03-22T19:21:41.516Z,53.04
2019-03-22T19:24:09.768Z,53.03
2019-03-22T19:26:38.036Z,54.56
2019-03-22T19:29:06.509Z,53.55
2019-03-22T19:31:34.977Z,53.93
2019-03-22T19:34:03.230Z,55.60
2019-03-22T19:36:31.482Z,54.62
2019-03-22T19:39:00.053Z,56.81
2019-03-22T19:41:28.565Z,54.96
2019-03-22T19:43:56.776Z,56.14
2019-03-22T19:46:25.016Z,57.24
2019-03-22T19:48:53.267Z,58.33
2019-03-22T19:51:21.504Z,55.98
2019-03-22T19:53:49.750Z,57.18
2019-03-22T19:56:17.992Z,55.99
2019-03-22T19:58:46.460Z,57.48
2019-03-22T20:01:14.693Z,55.92
2019-03-22T20:03:42.943Z,59.44
2019-03-22T20:06:11.173Z,59.28
2019-03-22T20:08:39.654Z,56.61
2019-03-22T20:11:08.122Z,58.09
2019-03-22T20:13:36.367Z,57.36
2019-03-22T20:16:04.919Z,58.38
2019-03-22T20:18:33.168Z,57.13
2019-03-22T20:21:01.407Z,57.64
2019-03-22T20:23:29.651Z,59.08
2019-03-22T20:25:58.242Z,58.29
2019-03-22T20:28:26.832Z,58.05
2019-03-22T20:30:55.082Z,61.26
2019-03-22T20:33:23.554Z,62.15
2019-03-22T20:35:52.076Z,59.89
2019-03-22T20:38:20.559Z,59.52
2019-03-22T20:40:48.817Z,58.45
2019-03-22T20:43:17.057Z,58.70
2019-03-22T20:45:45.586Z,61.19
2019-03-22T20:48:13.835Z,59.69
2019-03-22T20:50:42.321Z,61.52
2019-03-22T20:53:10.781Z,58.77
2019-03-22T20:55:39.264Z,62.41
2019-03-22T20:58:07.500Z,58.92
2019-03-22T21:00:36.016Z,60.73
2019-03-22T21:03:04.477Z,59.25
2019-03-22T21:05:32.722Z,59.69
2019-03-22T21:08:00.957Z,61.00
2019-03-22T21:10:29.201Z,60.51
2019-03-22T21:12:57.432Z,60.31
2019-03-22T21:15:25.696Z,59.60
2019-03-22T21:17:53.959Z,59.70
2019-03-22T21:20:22.458Z,60.18
2019-03-22T21:22:50.687Z,60.24
2019-03-22T21:25:18.930Z,60.23
2019-03-22T21:27:47.390Z,60.48
2019-03-22T21:30:16.109Z,60.58
2019-03-22T21:32:45.388Z,60.95
2019-03-22T21:35:22.377Z,61.19
2019-03-22T21:37:44.023Z,61.40
2019-03-22T21:40:12.436Z,62.57
2019-03-22T21:42:40.687Z,61.23
2019-03-22T21:45:09.987Z,63.72
2019-03-22T21:47:38.453Z,61.59
2019-03-22T21:50:08.247Z,62.23
2019-03-22T21:52:36.481Z,64.04
2019-03-22T21:55:06.284Z,62.23
2019-03-22T21:57:34.511Z,62.41
2019-03-22T22:00:03.124Z,62.93
2019-03-22T22:02:31.352Z,62.94
2019-03-22T22:04:59.603Z,63.42
2019-03-22T22:07:27.844Z,63.50
2019-03-22T22:09:56.089Z,64.68
2019-03-22T22:12:24.565Z,62.95
2019-03-22T22:14:53.024Z,63.03
2019-03-22T22:17:21.256Z,63.12
2019-03-22T22:19:49.496Z,63.59
2019-03-22T22:22:17.742Z,63.68
2019-03-22T22:24:46.212Z,63.85
2019-03-22T22:27:14.489Z,65.79
2019-03-22T22:29:42.929Z,66.33
2019-03-22T22:32:11.389Z,64.29
2019-03-22T22:34:39.632Z,64.19
2019-03-22T22:37:08.093Z,64.33
2019-03-22T22:39:36.583Z,65.63
2019-03-22T22:42:04.889Z,67.26
2019-03-22T22:44:33.368Z,65.29
2019-03-22T22:47:01.600Z,64.82
2019-03-22T22:49:29.840Z,67.09
2019-03-22T22:51:58.295Z,66.18
2019-03-22T22:54:26.541Z,65.43
2019-03-22T22:56:54.994Z,67.06
2019-03-22T22:59:23.464Z,66.70
2019-03-22T23:01:51.730Z,65.75
2019-03-22T23:04:19.978Z,66.34
2019-03-22T23:06:48.223Z,65.91
2019-03-22T23:09:16.687Z,66.75
2019-03-22T23:11:45.190Z,67.99
2019-03-22T23:14:13.410Z,66.51
2019-03-22T23:16:41.891Z,68.02
2019-03-22T23:19:10.113Z,67.06
2019-03-22T23:21:38.353Z,66.54
2019-03-22T23:24:06.585Z,70.22
2019-03-22T23:26:34.824Z,68.71
2019-03-22T23:29:03.068Z,66.87
2019-03-22T23:31:31.306Z,66.50
2019-03-22T23:33:59.542Z,67.99
2019-03-22T23:36:27.779Z,70.04
2019-03-22T23:38:56.251Z,70.88
2019-03-22T23:41:24.501Z,69.99
2019-03-22T23:43:52.740Z,67.74
2019-03-22T23:46:21.203Z,68.79
2019-03-22T23:48:49.430Z,68.82
2019-03-22T23:51:17.674Z,67.73
2019-03-22T23:53:46.143Z,67.97
2019-03-22T23:56:14.599Z,69.87
2019-03-22T23:58:42.892Z,70.20
